Time;durP1;ratioP1;P1;durP2;ratioP2;P2;SDS_P1;SDS_P2;PMS_P1;PMS_P2;Temp;Humidity;BMP_temperature;BMP_pressure;BME280_temperature;BME280_humidity;BME280_pressure;Samples;Min_cycle;Max_cycle;Signal;HPM_P1;HPM_P2
2022/12/21 00:01:27;;;;;;;2.47;1.80;;;15.90;81.00;;;;;;5015245;28;20092;-76
2022/12/21 00:03:56;;;;;;;2.40;2.20;;;15.80;67.80;;;;;;5012546;28;20037;-76
2022/12/21 00:06:23;;;;;;;2.28;2.08;;;15.80;67.70;;;;;;4997549;28;20510;-76
2022/12/21 00:08:51;;;;;;;1.95;1.75;;;15.80;67.70;;;;;;5015201;28;20373;-76
2022/12/21 00:11:17;;;;;;;2.75;1.95;;;15.80;67.70;;;;;;5015081;28;20026;-76
2022/12/21 00:13:44;;;;;;;2.58;1.88;;;15.80;67.70;;;;;;5015105;28;20455;-76
2022/12/21 00:16:12;;;;;;;2.30;1.73;;;15.80;67.60;;;;;;4997474;28;20115;-76
2022/12/21 00:18:38;;;;;;;1.95;1.63;;;15.90;67.70;;;;;;5015111;28;20484;-76
2022/12/21 00:21:07;;;;;;;2.15;1.58;;;15.90;67.70;;;;;;5015001;28;20026;-76
2022/12/21 00:23:33;;;;;;;2.38;1.55;;;15.90;67.60;;;;;;5013872;28;20022;-76
2022/12/21 00:26:01;;;;;;;2.33;1.95;;;15.90;67.60;;;;;;5014859;28;20030;-76
2022/12/21 00:28:27;;;;;;;1.58;1.48;;;15.90;67.60;;;;;;5014390;28;20030;-76
2022/12/21 00:30:53;;;;;;;1.90;1.50;;;15.90;67.60;;;;;;5014608;28;20366;-76
2022/12/21 00:33:19;;;;;;;1.88;1.45;;;15.90;68.20;;;;;;5014690;28;20028;-76
2022/12/21 00:35:51;;;;;;;1.90;1.40;;;15.90;67.60;;;;;;5014647;28;20026;-76
2022/12/21 00:38:18;;;;;;;1.70;1.40;;;15.90;67.50;;;;;;5014632;28;20055;-75
2022/12/21 00:40:44;;;;;;;1.50;1.40;;;15.90;67.40;;;;;;5014387;28;20098;-76
2022/12/21 00:43:10;;;;;;;2.83;1.48;;;15.90;67.50;;;;;;5014524;28;20033;-76
2022/12/21 00:45:36;;;;;;;1.83;1.35;;;15.90;67.40;;;;;;5014439;28;20089;-76
2022/12/21 00:48:02;;;;;;;1.58;1.30;;;15.90;67.50;;;;;;5014395;28;20034;-76
2022/12/21 00:50:28;;;;;;;1.55;1.45;;;15.90;67.40;;;;;;5014404;28;20064;-76
2022/12/21 00:52:54;;;;;;;1.35;1.25;;;16.30;80.70;;;;;;5014427;28;20501;-76
2022/12/21 00:55:19;;;;;;;1.63;1.48;;;15.90;67.40;;;;;;5014286;28;20116;-76
2022/12/21 00:57:45;;;;;;;1.98;1.50;;;15.90;67.40;;;;;;5014309;28;20018;-76
2022/12/21 01:00:11;;;;;;;1.48;1.38;;;15.90;67.30;;;;;;4996620;28;20022;-76
2022/12/21 01:02:37;;;;;;;1.70;1.30;;;;;;;;;;5013942;28;20073;-77
2022/12/21 01:05:04;;;;;;;1.42;1.27;;;15.90;66.80;;;;;;5013551;28;20451;-76
2022/12/21 01:07:30;;;;;;;1.55;1.45;;;15.90;67.30;;;;;;4996567;28;20385;-76
2022/12/21 01:09:55;;;;;;;2.05;1.55;;;15.90;67.30;;;;;;5013935;28;20026;-76
2022/12/21 01:12:21;;;;;;;2.00;1.50;;;15.90;67.90;;;;;;5014034;28;20088;-76
2022/12/21 01:14:46;;;;;;;1.70;1.50;;;15.90;80.50;;;;;;5014002;28;20021;-76
2022/12/21 01:17:12;;;;;;;2.63;1.30;;;15.90;67.20;;;;;;5013853;28;20033;-76
2022/12/21 01:19:38;;;;;;;1.83;1.30;;;;;;;;;;5013897;28;20105;-76
2022/12/21 01:22:04;;;;;;;1.48;1.30;;;15.90;66.60;;;;;;5013974;28;20033;-76
2022/12/21 01:24:29;;;;;;;2.85;1.50;;;15.90;67.20;;;;;;5013760;28;20120;-76
2022/12/21 01:26:56;;;;;;;1.63;1.42;;;15.90;67.20;;;;;;5013984;28;20042;-76
2022/12/21 01:29:21;;;;;;;2.30;1.45;;;15.90;67.20;;;;;;5013820;28;20547;-76
2022/12/21 01:31:47;;;;;;;1.55;1.45;;;15.90;67.10;;;;;;5013608;28;20121;-76
2022/12/21 01:34:13;;;;;;;1.88;1.40;;;;;;;;;;5013392;28;20020;-75
2022/12/21 01:36:38;;;;;;;1.92;1.50;;;15.90;66.50;;;;;;5013573;28;20026;-76
2022/12/21 01:39:04;;;;;;;1.40;1.30;;;15.90;67.10;;;;;;5013470;28;20499;-76
2022/12/21 01:41:31;;;;;;;1.85;1.50;;;15.90;67.10;;;;;;4995966;28;20014;-76
2022/12/21 01:43:59;;;;;;;1.40;1.30;;;15.90;67.10;;;;;;5013408;28;20022;-76
2022/12/21 01:46:42;;;;;;;2.35;1.60;;;15.90;67.00;;;;;;5013501;28;20018;-76
2022/12/21 01:49:21;;;;;;;1.50;1.40;;;15.90;67.00;;;;;;5013429;28;20464;-76
2022/12/21 01:51:52;;;;;;;1.50;1.40;;;15.90;67.00;;;;;;5013182;28;20527;-76
2022/12/21 01:54:23;;;;;;;2.13;1.63;;;15.90;67.00;;;;;;5013188;28;20022;-75
2022/12/21 01:56:53;;;;;;;1.48;1.23;;;15.90;67.70;;;;;;5013233;28;20495;-76
2022/12/21 01:59:25;;;;;;;1.85;1.48;;;15.90;67.00;;;;;;5013115;28;20018;-76
2022/12/21 02:01:51;;;;;;;1.42;1.13;;;15.90;67.00;;;;;;5012937;28;20045;-76
2022/12/21 02:04:17;;;;;;;2.03;1.35;;;15.90;67.00;;;;;;5013063;28;20065;-76
2022/12/21 02:06:53;;;;;;;1.30;1.20;;;15.90;67.00;;;;;;5013044;28;20017;-76
2022/12/21 02:09:19;;;;;;;1.23;1.02;;;;;;;;;;5013027;28;20026;-76
2022/12/21 02:11:46;;;;;;;1.25;1.15;;;15.90;66.40;;;;;;5012924;28;20065;-76
2022/12/21 02:14:12;;;;;;;1.33;1.20;;;15.90;66.90;;;;;;4995281;28;20061;-76
2022/12/21 02:16:57;;;;;;;2.05;1.45;;;15.90;66.90;;;;;;5012890;28;20428;-76
2022/12/21 02:19:47;;;;;;;3.03;1.20;;;15.90;66.90;;;;;;5013113;28;20115;-76
2022/12/21 02:22:32;;;;;;;1.40;1.23;;;15.90;66.90;;;;;;5012885;28;20105;-76
2022/12/21 02:25:19;;;;;;;1.73;1.17;;;15.80;79.90;;;;;;5012825;28;20029;-76
2022/12/21 02:28:05;;;;;;;2.97;1.30;;;15.90;66.80;;;;;;5012815;28;20026;-76
2022/12/21 02:31:04;;;;;;;1.52;1.40;;;15.90;66.80;;;;;;5012657;28;20065;-76
2022/12/21 02:33:50;;;;;;;2.13;1.10;;;15.90;66.80;;;;;;5012752;28;20048;-76
2022/12/21 02:36:24;;;;;;;2.08;1.20;;;15.90;66.80;;;;;;4994838;28;20029;-76
2022/12/21 02:38:53;;;;;;;1.55;1.40;;;15.90;66.80;;;;;;5012632;28;20097;-76
2022/12/21 02:41:45;;;;;;;1.63;1.20;;;15.90;66.80;;;;;;5011418;28;20029;-77
2022/12/21 02:44:40;;;;;;;1.33;1.10;;;15.90;66.80;;;;;;5012699;28;20098;-78
2022/12/21 02:47:34;;;;;;;1.40;1.23;;;15.90;66.80;;;;;;5012031;28;20022;-78
2022/12/21 02:50:08;;;;;;;2.50;1.20;;;15.80;66.70;;;;;;5012491;28;20022;-78
2022/12/21 02:52:51;;;;;;;1.05;1.05;;;15.90;66.80;;;;;;5012482;28;20388;-78
2022/12/21 02:55:17;;;;;;;1.73;1.17;;;15.80;66.70;;;;;;5012522;28;20473;-78
2022/12/21 02:57:44;;;;;;;1.65;1.55;;;15.90;66.80;;;;;;5012526;28;20032;-78
2022/12/21 03:00:13;;;;;;;1.40;1.30;;;15.90;66.70;;;;;;5012569;28;20026;-78
2022/12/21 03:06:21;;;;;;;2.20;1.70;;;15.90;66.70;;;;;;4992076;28;20040;-78
2022/12/21 03:09:12;;;;;;;1.58;1.42;;;15.80;66.60;;;;;;4994805;28;20026;-78
2022/12/21 03:11:59;;;;;;;1.52;1.35;;;15.90;66.70;;;;;;5012280;28;20042;-78
2022/12/21 03:14:37;;;;;;;2.30;1.52;;;15.80;66.60;;;;;;4994642;28;20025;-78
2022/12/21 03:17:34;;;;;;;2.08;1.27;;;15.80;66.60;;;;;;5012357;28;20487;-78
2022/12/21 03:20:12;;;;;;;2.58;1.70;;;15.80;66.60;;;;;;5012384;28;20041;-78
2022/12/21 03:22:37;;;;;;;2.00;1.50;;;15.80;66.60;;;;;;5011009;28;20057;-78
2022/12/21 03:25:10;;;;;;;1.70;1.48;;;15.80;66.60;;;;;;5012155;28;20049;-78
2022/12/21 03:27:42;;;;;;;2.10;1.30;;;15.80;66.60;;;;;;5012128;28;20033;-78
2022/12/21 03:30:12;;;;;;;1.50;1.40;;;15.80;66.60;;;;;;5012067;28;20022;-78
2022/12/21 03:33:15;;;;;;;1.70;1.55;;;15.90;66.60;;;;;;5012116;28;20053;-78
2022/12/21 03:35:51;;;;;;;1.52;1.42;;;15.80;66.60;;;;;;4951542;29;20019;-78
2022/12/21 03:38:30;;;;;;;2.55;1.88;;;15.80;66.50;;;;;;5004914;28;20042;-78
2022/12/21 03:40:59;;;;;;;3.05;1.55;;;15.80;66.50;;;;;;5012186;28;20022;-78
2022/12/21 03:43:34;;;;;;;2.38;1.45;;;15.80;66.50;;;;;;5012063;28;20045;-78
2022/12/21 03:46:34;;;;;;;1.52;1.42;;;15.80;66.50;;;;;;5012352;28;20030;-78
2022/12/21 03:49:02;;;;;;;;;;;15.80;66.50;;;;;;5001684;28;20373;-78
2022/12/21 03:51:36;;;;;;;1.58;1.45;;;15.80;66.50;;;;;;5011863;28;19914;-78
2022/12/21 03:54:34;;;;;;;2.28;1.70;;;15.80;66.60;;;;;;5011942;28;20029;-78
2022/12/21 03:56:59;;;;;;;2.53;1.77;;;15.80;66.50;;;;;;5011339;28;20045;-78
2022/12/21 03:59:26;;;;;;;2.33;1.95;;;15.80;66.50;;;;;;5014423;28;20026;-78
2022/12/21 04:01:59;;;;;;;2.03;1.77;;;15.60;66.40;;;;;;5014931;28;20506;-78
2022/12/21 04:04:31;;;;;;;2.97;1.77;;;15.80;66.50;;;;;;5015290;28;20029;-78
2022/12/21 04:07:00;;;;;;;2.53;2.00;;;15.80;66.50;;;;;;4997554;28;20017;-78
2022/12/21 04:09:26;;;;;;;2.50;2.17;;;15.80;66.50;;;;;;5015229;28;20389;-78
2022/12/21 04:14:38;;;;;;;2.65;2.20;;;15.80;66.40;;;;;;5015438;28;20496;-78
2022/12/21 04:17:03;;;;;;;2.20;2.00;;;15.80;66.40;;;;;;5015057;28;20034;-78
2022/12/21 04:28:07;;;;;;;2.30;2.10;;;15.80;66.40;;;;;;5015285;28;20049;-78
2022/12/21 04:28:21;;;;;;;3.45;2.17;;;15.80;66.40;;;;;;5015090;28;20037;-78
2022/12/21 04:30:42;;;;;;;2.92;2.63;;;15.80;66.40;;;;;;5011674;28;20469;-78
2022/12/21 04:33:12;;;;;;;3.33;2.40;;;15.80;66.40;;;;;;5014890;28;20396;-78
2022/12/21 04:37:30;;;;;;;2.78;2.35;;;15.80;66.40;;;;;;5014680;28;20018;-78
2022/12/21 04:38:26;;;;;;;3.80;2.15;;;15.80;66.40;;;;;;5014638;28;20034;-78
2022/12/21 04:40:53;;;;;;;4.00;2.17;;;15.80;66.30;;;;;;4996855;28;20025;-78
2022/12/21 04:43:19;;;;;;;2.40;2.20;;;15.80;66.30;;;;;;4996994;28;20500;-78
2022/12/21 04:45:45;;;;;;;2.33;2.13;;;15.80;66.30;;;;;;5014458;28;20018;-78
2022/12/21 04:48:10;;;;;;;3.15;2.65;;;15.80;66.30;;;;;;5014517;28;20030;-78
2022/12/21 04:50:40;;;;;;;2.88;2.22;;;15.80;67.00;;;;;;5014428;28;20026;-78
2022/12/21 04:53:06;;;;;;;;;;;15.80;66.30;;;;;;5014814;28;20030;-78
2022/12/21 04:55:32;;;;;;;3.63;2.22;;;15.80;66.30;;;;;;5014315;28;19912;-78
2022/12/21 04:57:58;;;;;;;4.28;2.17;;;15.80;66.30;;;;;;5014285;28;20105;-78
2022/12/21 05:00:23;;;;;;;2.45;1.88;;;15.80;66.30;;;;;;4996733;28;20021;-78
2022/12/21 05:02:50;;;;;;;2.88;2.13;;;15.80;66.30;;;;;;5013775;28;20041;-78
2022/12/21 05:05:15;;;;;;;3.10;2.35;;;15.80;66.30;;;;;;5014113;28;20499;-78
2022/12/21 05:07:41;;;;;;;3.30;2.30;;;15.80;66.30;;;;;;5014148;28;20026;-78
2022/12/21 05:10:07;;;;;;;3.25;2.05;;;15.80;66.30;;;;;;5013574;28;20403;-78
2022/12/21 05:12:33;;;;;;;3.05;2.10;;;15.80;66.30;;;;;;5013866;28;20030;-78
2022/12/21 05:14:59;;;;;;;3.15;2.03;;;15.80;66.30;;;;;;5013973;28;20049;-78
2022/12/21 05:17:24;;;;;;;3.50;2.05;;;15.80;66.20;;;;;;4996388;28;20038;-78
2022/12/21 05:19:50;;;;;;;3.17;2.55;;;15.80;66.20;;;;;;5013897;28;20443;-78
2022/12/21 05:22:16;;;;;;;2.85;2.08;;;15.80;66.20;;;;;;5013711;28;20033;-78
2022/12/21 05:24:44;;;;;;;4.20;2.33;;;15.80;66.20;;;;;;5013736;28;20034;-78
2022/12/21 05:27:11;;;;;;;3.63;2.25;;;15.80;66.10;;;;;;5013655;28;20018;-78
2022/12/21 05:29:37;;;;;;;3.10;2.20;;;15.80;66.20;;;;;;5013628;28;20480;-78
2022/12/21 05:32:02;;;;;;;3.10;1.80;;;15.80;66.10;;;;;;5013382;28;20026;-78
2022/12/21 05:34:28;;;;;;;2.00;1.80;;;15.80;66.10;;;;;;5013562;28;20029;-78
2022/12/21 05:36:54;;;;;;;2.92;1.92;;;15.80;66.10;;;;;;5013503;28;20030;-78
2022/12/21 05:39:19;;;;;;;2.42;2.22;;;15.70;66.00;;;;;;5013793;28;20419;-78
2022/12/21 05:41:45;;;;;;;3.30;2.30;;;15.80;66.00;;;;;;5013473;28;20105;-78
2022/12/21 05:44:10;;;;;;;5.18;1.83;;;15.80;66.10;;;;;;4995801;28;20072;-78
2022/12/21 05:46:36;;;;;;;2.88;1.73;;;15.80;66.10;;;;;;5013395;28;20412;-78
2022/12/21 05:49:02;;;;;;;2.55;2.15;;;15.80;66.00;;;;;;5013357;28;20388;-76
2022/12/21 05:51:27;;;;;;;2.58;2.10;;;15.80;66.00;;;;;;5013264;28;20030;-77
2022/12/21 05:53:53;;;;;;;5.03;2.05;;;15.70;65.90;;;;;;4995611;28;20108;-76
2022/12/21 05:56:19;;;;;;;3.28;2.05;;;15.80;65.90;;;;;;5013211;28;20034;-76
2022/12/21 05:58:45;;;;;;;4.78;1.90;;;;;;;;;;4995421;28;20052;-79
2022/12/21 06:01:12;;;;;;;4.05;1.95;;;15.70;79.20;;;;;;4995341;28;20083;-74
2022/12/21 06:03:39;;;;;;;2.80;1.95;;;15.70;65.80;;;;;;5012953;28;20042;-74
2022/12/21 06:06:10;;;;;;;4.53;1.95;;;15.70;65.90;;;;;;5013062;28;20412;-74
2022/12/21 06:08:35;;;;;;;3.17;1.88;;;15.70;66.50;;;;;;5012924;28;20021;-74
2022/12/21 06:11:06;;;;;;;3.05;2.25;;;15.70;65.80;;;;;;5012952;28;20042;-74
2022/12/21 06:13:32;;;;;;;3.53;2.22;;;15.70;65.80;;;;;;5012805;28;20072;-74
2022/12/21 06:16:08;;;;;;;5.15;2.08;;;15.70;65.80;;;;;;5012894;28;20018;-74
2022/12/21 06:18:34;;;;;;;3.90;2.25;;;15.70;65.70;;;;;;4995144;28;20468;-74
2022/12/21 06:21:00;;;;;;;3.20;1.98;;;15.70;65.80;;;;;;5012036;28;20021;-77
2022/12/21 06:23:26;;;;;;;6.05;2.33;;;14.80;65.30;;;;;;5012893;28;20026;-75
2022/12/21 06:25:59;;;;;;;3.05;2.28;;;15.70;65.80;;;;;;5012794;28;20050;-75
2022/12/21 06:28:26;;;;;;;4.55;2.28;;;15.70;65.80;;;;;;5013770;28;20373;-75
2022/12/21 06:30:53;;;;;;;5.43;2.20;;;15.70;65.80;;;;;;5023752;28;20046;-75
2022/12/21 06:33:20;;;;;;;3.88;1.63;;;15.70;65.80;;;;;;4996572;28;20034;-75
2022/12/21 06:35:47;;;;;;;3.28;1.90;;;15.70;65.80;;;;;;5012588;28;20021;-75
2022/12/21 06:38:12;;;;;;;3.50;1.90;;;15.70;65.80;;;;;;5012440;28;20501;-75
2022/12/21 06:40:38;;;;;;;3.53;2.25;;;;;;;;;;5012328;28;20033;-75
2022/12/21 06:43:04;;;;;;;4.22;2.00;;;15.80;65.20;;;;;;4994769;28;20123;-76
2022/12/21 06:45:30;;;;;;;2.45;1.95;;;15.70;65.70;;;;;;5012156;28;20025;-75
2022/12/21 06:47:55;;;;;;;4.28;1.75;;;15.70;65.80;;;;;;5012023;28;20397;-75
2022/12/21 06:50:22;;;;;;;5.47;2.03;;;15.70;65.70;;;;;;5011811;28;20034;-75
2022/12/21 06:52:48;;;;;;;3.30;2.03;;;15.70;65.70;;;;;;5012434;28;20104;-76
2022/12/21 06:55:14;;;;;;;4.18;1.55;;;15.70;65.70;;;;;;5012157;28;20025;-75
2022/12/21 06:57:40;;;;;;;3.70;1.88;;;15.80;65.70;;;;;;5012168;28;20018;-76
2022/12/21 07:00:06;;;;;;;3.42;1.85;;;15.80;65.70;;;;;;5012258;28;20034;-76
2022/12/21 07:02:32;;;;;;;2.78;2.05;;;15.80;65.70;;;;;;4994277;28;20050;-75
2022/12/21 07:04:57;;;;;;;4.22;2.15;;;15.80;65.70;;;;;;5012143;28;20037;-75
2022/12/21 07:07:23;;;;;;;3.80;2.15;;;15.80;65.60;;;;;;5017619;28;20018;-74
2022/12/21 07:09:49;;;;;;;3.17;2.05;;;15.80;65.60;;;;;;5016879;28;20021;-76
2022/12/21 07:12:14;;;;;;;2.42;1.80;;;15.80;65.60;;;;;;5012194;28;20037;-73
2022/12/21 07:14:40;;;;;;;3.55;1.92;;;15.80;65.60;;;;;;5012342;28;20018;-74
2022/12/21 07:17:06;;;;;;;4.00;2.08;;;15.80;65.60;;;;;;4994528;28;20079;-74
2022/12/21 07:19:31;;;;;;;4.13;1.85;;;15.70;66.20;;;;;;4994682;28;20105;-74
2022/12/21 07:21:57;;;;;;;5.63;2.40;;;15.80;65.60;;;;;;4994313;28;20025;-74
2022/12/21 07:24:22;;;;;;;4.43;2.25;;;15.80;65.60;;;;;;4994539;28;20026;-74
2022/12/21 07:26:48;;;;;;;4.70;2.15;;;15.80;65.50;;;;;;4994408;28;20058;-74
2022/12/21 07:29:14;;;;;;;3.90;2.30;;;15.80;65.50;;;;;;5012159;28;20029;-77
2022/12/21 07:31:39;;;;;;;5.28;2.42;;;15.70;65.40;;;;;;5011961;28;20488;-75
2022/12/21 07:34:05;;;;;;;4.50;2.35;;;15.70;65.30;;;;;;5015887;28;20485;-75
2022/12/21 07:36:31;;;;;;;4.43;1.98;;;15.80;65.40;;;;;;5015902;28;20026;-75
2022/12/21 07:38:56;;;;;;;4.15;2.38;;;15.70;65.30;;;;;;5016026;28;20026;-75
2022/12/21 07:41:22;;;;;;;5.38;2.35;;;15.70;65.20;;;;;;5016086;28;20030;-75
2022/12/21 07:43:49;;;;;;;3.53;2.05;;;15.70;65.20;;;;;;5015673;28;20025;-75
2022/12/21 07:46:16;;;;;;;5.10;2.20;;;15.70;65.20;;;;;;5015578;28;20030;-75
2022/12/21 07:48:42;;;;;;;6.57;2.08;;;15.70;65.20;;;;;;4997954;28;20025;-75
2022/12/21 07:51:08;;;;;;;4.47;2.25;;;15.70;65.20;;;;;;4997913;28;20038;-75
2022/12/21 07:53:34;;;;;;;5.03;2.30;;;15.70;65.20;;;;;;4997896;28;20018;-75
2022/12/21 07:56:05;;;;;;;3.45;2.17;;;15.70;65.20;;;;;;5015480;28;20488;-75
2022/12/21 07:58:30;;;;;;;4.65;2.40;;;15.70;65.10;;;;;;4997765;28;20510;-75
2022/12/21 08:01:04;;;;;;;3.53;2.05;;;15.70;78.20;;;;;;5015296;28;20018;-75
2022/12/21 08:03:30;;;;;;;5.10;2.03;;;15.70;65.20;;;;;;4997508;28;20100;-75
2022/12/21 08:05:55;;;;;;;2.80;1.88;;;15.70;65.10;;;;;;5015190;28;20101;-75
2022/12/21 08:08:21;;;;;;;3.15;2.15;;;;;;;;;;4997458;28;20025;-74
2022/12/21 08:10:47;;;;;;;3.97;2.20;;;15.70;64.60;;;;;;5015093;28;20034;-75
2022/12/21 08:13:12;;;;;;;4.72;2.03;;;15.70;65.10;;;;;;5015278;28;20500;-75
2022/12/21 08:15:38;;;;;;;3.50;2.00;;;15.70;65.20;;;;;;5015090;28;20097;-75
2022/12/21 08:18:03;;;;;;;4.10;2.15;;;15.70;65.10;;;;;;5015003;28;20484;-75
2022/12/21 08:20:29;;;;;;;5.50;2.78;;;15.70;65.00;;;;;;5014998;28;20033;-75
2022/12/21 08:22:55;;;;;;;6.20;2.65;;;15.60;65.00;;;;;;5015220;28;20022;-75
2022/12/21 08:25:20;;;;;;;3.15;2.17;;;15.70;65.10;;;;;;4997222;28;20096;-75
2022/12/21 08:27:46;;;;;;;4.75;2.45;;;15.70;65.10;;;;;;5014888;28;20018;-74
2022/12/21 08:30:12;;;;;;;5.80;2.33;;;15.70;65.10;;;;;;4997218;28;20424;-75
2022/12/21 08:32:37;;;;;;;5.03;2.45;;;15.60;65.00;;;;;;5014846;28;20030;-75
2022/12/21 08:35:03;;;;;;;5.53;2.60;;;15.60;65.00;;;;;;5014855;28;20030;-75
2022/12/21 08:37:29;;;;;;;6.93;2.20;;;15.60;65.00;;;;;;5014595;28;20431;-75
2022/12/21 08:39:55;;;;;;;6.72;2.70;;;15.60;65.00;;;;;;5014701;28;20021;-75
2022/12/21 08:42:20;;;;;;;4.57;2.25;;;15.70;65.00;;;;;;5014782;28;20030;-76
2022/12/21 08:44:48;;;;;;;4.35;2.45;;;15.60;65.00;;;;;;5013720;28;20030;-76
2022/12/21 08:47:13;;;;;;;3.70;2.33;;;15.70;65.00;;;;;;5014473;28;20501;-76
2022/12/21 08:49:39;;;;;;;5.63;2.47;;;15.70;65.00;;;;;;4996949;28;20025;-76
2022/12/21 08:52:05;;;;;;;5.97;2.55;;;15.70;64.90;;;;;;5014428;28;20480;-76
2022/12/21 08:54:31;;;;;;;4.55;2.35;;;15.70;64.90;;;;;;5014407;28;20369;-76
2022/12/21 08:56:56;;;;;;;6.10;2.42;;;15.70;64.90;;;;;;5014227;28;20033;-75
2022/12/21 08:59:22;;;;;;;7.85;2.65;;;;;;;;;;5014321;28;20029;-76
2022/12/21 09:01:50;;;;;;;3.72;2.33;;;15.70;64.30;;;;;;5014015;28;20509;-76
2022/12/21 09:04:16;;;;;;;6.25;2.38;;;15.70;64.90;;;;;;5018023;28;20037;-76
2022/12/21 09:06:41;;;;;;;5.85;2.30;;;15.70;64.70;;;;;;5014662;28;20030;-76
2022/12/21 09:09:08;;;;;;;9.73;2.60;;;15.70;64.80;;;;;;5014168;28;20018;-76
2022/12/21 09:11:34;;;;;;;6.68;2.45;;;15.70;64.70;;;;;;5013927;28;20034;-75
2022/12/21 09:14:00;;;;;;;6.53;2.40;;;15.70;64.70;;;;;;5013966;28;20575;-76
2022/12/21 09:16:26;;;;;;;4.07;2.25;;;15.70;64.70;;;;;;5014003;28;20030;-76
2022/12/21 09:18:52;;;;;;;6.68;3.20;;;15.70;64.70;;;;;;5013943;28;20032;-76
2022/12/21 09:21:20;;;;;;;5.43;2.13;;;15.70;64.60;;;;;;5013940;28;20026;-76
2022/12/21 09:23:46;;;;;;;8.20;3.55;;;15.70;64.60;;;;;;5013883;28;20061;-76
2022/12/21 09:26:14;;;;;;;6.53;2.72;;;15.70;64.50;;;;;;5013795;28;20022;-75
2022/12/21 09:28:39;;;;;;;6.78;3.03;;;15.70;64.50;;;;;;5013821;28;20014;-76
2022/12/21 09:31:10;;;;;;;4.70;2.60;;;15.70;64.60;;;;;;5013587;28;20095;-76
2022/12/21 09:33:37;;;;;;;12.23;3.58;;;15.70;64.60;;;;;;5013564;28;20064;-75
2022/12/21 09:36:03;;;;;;;6.90;3.35;;;15.70;64.50;;;;;;5013602;28;20049;-76
2022/12/21 09:38:30;;;;;;;8.82;3.17;;;15.70;64.40;;;;;;5013632;28;20037;-76
2022/12/21 09:41:06;;;;;;;8.70;2.90;;;15.70;64.50;;;;;;5013380;28;20392;-75
2022/12/21 09:43:40;;;;;;;7.13;2.78;;;15.70;64.50;;;;;;5013573;28;20022;-76
2022/12/21 09:46:12;;;;;;;5.85;2.92;;;15.70;64.50;;;;;;5013466;28;20129;-75
2022/12/21 09:48:48;;;;;;;5.43;2.85;;;15.70;64.50;;;;;;5013467;28;20022;-75
2022/12/21 09:51:20;;;;;;;7.93;3.30;;;15.70;64.50;;;;;;5013284;28;20030;-76
2022/12/21 09:53:48;;;;;;;6.82;2.78;;;15.60;64.40;;;;;;5013359;28;20025;-76
2022/12/21 09:56:21;;;;;;;7.50;2.92;;;15.60;64.40;;;;;;5013020;28;20030;-76
2022/12/21 09:58:48;;;;;;;9.82;3.17;;;15.60;64.40;;;;;;5013243;28;20044;-76
2022/12/21 10:01:33;;;;;;;6.68;3.15;;;15.70;64.40;;;;;;5012952;28;20065;-76
2022/12/21 10:04:10;;;;;;;5.05;2.88;;;15.60;64.30;;;;;;5011891;28;20053;-76
2022/12/21 10:06:58;;;;;;;7.03;2.88;;;15.60;64.40;;;;;;5012991;28;20025;-76
2022/12/21 10:09:54;;;;;;;6.32;3.20;;;15.60;64.30;;;;;;5011716;28;20472;-76
2022/12/21 10:12:26;;;;;;;6.00;2.72;;;15.60;64.30;;;;;;5012835;28;20030;-76
2022/12/21 10:15:02;;;;;;;7.25;2.70;;;15.60;64.30;;;;;;5011697;28;20026;-76
2022/12/21 10:17:52;;;;;;;7.07;3.40;;;15.60;64.30;;;;;;5012917;28;20081;-76
2022/12/21 10:20:24;;;;;;;7.07;2.53;;;15.60;64.20;;;;;;5012729;28;20025;-75
2022/12/21 10:22:54;;;;;;;5.70;2.67;;;15.60;64.30;;;;;;5012867;28;20026;-76
2022/12/21 10:25:25;;;;;;;5.55;2.90;;;15.60;64.30;;;;;;5012876;28;20508;-76
2022/12/21 10:28:15;;;;;;;5.40;3.30;;;15.60;64.30;;;;;;5012786;28;20098;-76
2022/12/21 10:30:45;;;;;;;7.30;2.85;;;15.60;64.30;;;;;;4982016;28;20045;-76
2022/12/21 10:33:12;;;;;;;4.85;2.78;;;15.60;64.30;;;;;;5012590;28;20036;-76
2022/12/21 10:35:39;;;;;;;7.82;2.78;;;15.60;64.30;;;;;;5012963;28;20065;-76
2022/12/21 10:38:17;;;;;;;6.80;3.60;;;15.60;64.20;;;;;;5012617;28;20026;-76
2022/12/21 10:40:48;;;;;;;6.93;3.00;;;15.60;64.30;;;;;;5012700;28;20021;-76
2022/12/21 10:43:13;;;;;;;7.15;3.92;;;15.60;64.20;;;;;;5012663;28;20022;-76
2022/12/21 10:45:40;;;;;;;8.48;4.25;;;15.60;64.20;;;;;;4994819;28;20026;-76
2022/12/21 10:48:05;;;;;;;9.35;3.75;;;15.60;64.30;;;;;;5012752;28;20361;-76
2022/12/21 10:50:33;;;;;;;6.45;3.67;;;15.50;64.20;;;;;;5012423;28;20053;-75
2022/12/21 10:53:15;;;;;;;9.30;4.15;;;15.60;64.30;;;;;;5012452;28;20057;-76
2022/12/21 10:55:42;;;;;;;6.55;4.40;;;15.60;64.20;;;;;;5012508;28;20056;-76
2022/12/21 10:58:18;;;;;;;6.57;3.28;;;15.50;64.10;;;;;;5012475;28;20119;-76
2022/12/21 11:00:52;;;;;;;6.57;3.33;;;15.60;64.10;;;;;;5012496;28;20033;-76
2022/12/21 11:03:36;;;;;;;5.60;3.63;;;15.60;64.20;;;;;;5011980;28;20054;-76
2022/12/21 11:06:18;;;;;;;7.10;3.85;;;15.60;64.20;;;;;;4994719;28;20483;-76
2022/12/21 11:08:51;;;;;;;6.47;3.53;;;15.60;64.20;;;;;;4998668;28;20087;-76
2022/12/21 11:11:33;;;;;;;5.38;3.00;;;15.60;64.30;;;;;;5016155;28;20132;-76
2022/12/21 11:14:16;;;;;;;7.57;3.75;;;15.60;64.20;;;;;;5016189;28;20026;-76
2022/12/21 11:16:44;;;;;;;6.88;3.25;;;15.60;64.20;;;;;;5016056;28;20018;-76
2022/12/21 11:19:15;;;;;;;7.18;3.00;;;15.60;64.20;;;;;;4998483;28;20049;-76
2022/12/21 11:21:47;;;;;;;3.50;2.92;;;15.60;64.20;;;;;;5016030;28;20030;-76
2022/12/21 11:24:22;;;;;;;4.80;2.67;;;15.60;64.30;;;;;;5015905;28;20511;-76
2022/12/21 11:26:58;;;;;;;5.60;2.92;;;15.60;64.20;;;;;;4998311;28;20542;-76
2022/12/21 11:29:28;;;;;;;9.43;3.38;;;15.60;64.20;;;;;;5015810;28;20102;-76
2022/12/21 11:32:01;;;;;;;4.97;3.10;;;15.60;64.20;;;;;;5015650;28;20473;-75
2022/12/21 11:34:33;;;;;;;6.18;3.42;;;15.60;64.20;;;;;;5015809;28;20026;-76
2022/12/21 11:37:02;;;;;;;6.45;3.28;;;15.60;64.20;;;;;;4998219;28;20022;-76
2022/12/21 11:39:28;;;;;;;7.88;3.25;;;15.60;64.20;;;;;;5015723;28;20022;-76
2022/12/21 11:41:54;;;;;;;7.85;3.47;;;15.60;64.20;;;;;;4997953;28;20116;-76
2022/12/21 11:44:29;;;;;;;6.35;3.63;;;15.60;64.20;;;;;;5015650;28;20026;-76
2022/12/21 11:47:01;;;;;;;5.35;2.80;;;15.60;64.20;;;;;;5015631;28;20018;-76
2022/12/21 11:50:04;;;;;;;6.65;2.75;;;15.60;64.20;;;;;;5015506;28;20029;-76
2022/12/21 11:52:41;;;;;;;4.78;3.10;;;15.60;64.20;;;;;;4997816;28;20041;-76
2022/12/21 11:55:10;;;;;;;3.70;2.92;;;15.60;64.20;;;;;;5015860;28;20025;-76
2022/12/21 11:57:44;;;;;;;6.22;3.38;;;15.60;64.10;;;;;;5015367;28;20037;-76
2022/12/21 12:00:18;;;;;;;5.43;2.72;;;15.60;64.10;;;;;;5014195;28;20022;-76
2022/12/21 12:03:19;;;;;;;7.15;3.33;;;15.60;64.20;;;;;;4997501;28;20046;-76
2022/12/21 12:06:19;;;;;;;6.68;3.03;;;15.60;64.10;;;;;;4997675;28;20451;-76
2022/12/21 12:09:22;;;;;;;5.15;3.45;;;15.60;64.10;;;;;;5015182;28;20037;-77
2022/12/21 12:11:58;;;;;;;8.82;3.15;;;15.50;64.00;;;;;;5015106;28;20084;-76
2022/12/21 12:14:23;;;;;;;5.35;3.03;;;15.60;64.10;;;;;;5015220;28;20053;-76
2022/12/21 12:17:01;;;;;;;6.55;3.47;;;15.50;64.00;;;;;;5015010;28;20060;-76
2022/12/21 12:20:04;;;;;;;6.15;3.40;;;15.50;64.00;;;;;;5013733;28;20045;-75
2022/12/21 12:22:51;;;;;;;6.00;3.20;;;15.50;64.00;;;;;;5015002;28;20127;-76
2022/12/21 12:25:44;;;;;;;8.25;3.72;;;15.50;64.00;;;;;;5013724;28;20041;-76
2022/12/21 12:28:29;;;;;;;5.47;3.30;;;15.50;63.90;;;;;;4997391;28;20125;-76
2022/12/21 12:31:21;;;;;;;7.00;4.00;;;15.50;63.90;;;;;;5014836;28;20076;-81
2022/12/21 12:34:31;;;;;;;4.40;3.50;;;15.50;63.80;;;;;;5014689;28;20026;-81
2022/12/21 12:37:23;;;;;;;7.85;3.83;;;15.50;64.00;;;;;;5001629;28;20084;-80
2022/12/21 12:40:04;;;;;;;6.40;4.28;;;15.50;63.90;;;;;;5014651;28;20052;-81
2022/12/21 12:42:37;;;;;;;6.13;3.67;;;15.50;63.90;;;;;;4997099;28;20076;-81
2022/12/21 12:45:11;;;;;;;4.03;3.25;;;15.50;63.90;;;;;;5014653;28;20026;-81
2022/12/21 12:47:43;;;;;;;6.45;3.60;;;15.50;63.90;;;;;;5014607;28;20072;-81
2022/12/21 12:50:29;;;;;;;7.20;3.88;;;15.50;63.90;;;;;;5014674;28;20050;-81
2022/12/21 12:53:35;;;;;;;7.65;4.00;;;15.50;63.80;;;;;;5013129;28;20037;-81
2022/12/21 12:56:37;;;;;;;7.00;4.07;;;15.50;63.80;;;;;;5014416;28;20034;-81
2022/12/21 12:59:30;;;;;;;7.25;3.63;;;15.50;63.80;;;;;;5014391;28;20029;-81
2022/12/21 13:02:41;;;;;;;4.70;3.67;;;15.50;63.80;;;;;;5013956;28;20042;-81
2022/12/21 13:05:33;;;;;;;7.60;3.85;;;15.50;63.80;;;;;;5013984;28;20163;-81
2022/12/21 13:08:34;;;;;;;5.57;4.00;;;15.50;63.80;;;;;;5014387;28;20025;-81
2022/12/21 13:11:12;;;;;;;4.45;3.42;;;15.50;63.80;;;;;;5014541;28;20076;-81
2022/12/21 13:13:54;;;;;;;4.53;3.22;;;15.50;63.80;;;;;;5014386;28;20053;-81
2022/12/21 13:16:40;;;;;;;4.28;3.45;;;15.50;63.90;;;;;;5014306;28;20376;-81
2022/12/21 13:19:10;;;;;;;5.40;3.55;;;15.50;63.80;;;;;;5014231;28;20385;-81
2022/12/21 13:21:39;;;;;;;3.85;3.13;;;15.30;77.00;;;;;;4996418;28;20029;-81
2022/12/21 13:24:14;;;;;;;6.68;3.58;;;15.50;63.30;;;;;;5013605;28;20030;-81
2022/12/21 13:26:50;;;;;;;6.32;3.45;;;15.40;63.80;;;;;;5014055;28;20034;-80